createdAt,value
2018-06-01T00:00:55.647Z,45.17
2018-06-01T00:03:23.195Z,45.17
2018-06-01T00:05:50.756Z,45.17
2018-06-01T00:08:19.765Z,44.67
2018-06-01T00:10:47.892Z,44.30
2018-06-01T00:13:15.475Z,44.92
2018-06-01T00:15:43.080Z,46.10
2018-06-01T00:18:10.856Z,48.20
2018-06-01T00:20:39.939Z,46.95
2018-06-01T00:23:07.884Z,47.25
2018-06-01T00:25:35.448Z,45.38
2018-06-01T00:28:03.608Z,47.53
2018-06-01T00:30:32.805Z,48.30
2018-06-01T00:33:01.996Z,49.15
2018-06-01T00:35:30.494Z,49.42
2018-06-01T00:37:58.047Z,49.55
2018-06-01T00:40:26.783Z,48.15
2018-06-01T00:42:54.346Z,51.30
2018-06-01T00:45:21.875Z,48.33
2018-06-01T00:47:52.667Z,48.10
2018-06-01T00:50:22.700Z,48.13
2018-06-01T00:52:50.475Z,47.50
2018-06-01T00:55:25.322Z,48.75
2018-06-01T00:57:54.067Z,49.38
2018-06-01T01:00:22.519Z,48.58
2018-06-01T01:02:51.788Z,48.50
2018-06-01T01:05:20.140Z,49.58
2018-06-01T01:07:49.008Z,51.15
2018-06-01T01:10:16.890Z,51.63
2018-06-01T01:12:45.792Z,51.35
2018-06-01T01:15:13.323Z,51.20
2018-06-01T01:17:42.219Z,51.00
2018-06-01T01:20:11.283Z,52.33
2018-06-01T01:22:39.646Z,51.97
2018-06-01T01:25:07.235Z,51.13
2018-06-01T01:27:34.776Z,52.62
2018-06-01T01:30:03.265Z,52.25
2018-06-01T01:32:31.905Z,50.90
2018-06-01T01:34:59.496Z,50.25
2018-06-01T01:37:33.420Z,50.97
2018-06-01T01:40:01.780Z,48.65
2018-06-01T01:42:29.602Z,48.95
2018-06-01T01:44:58.639Z,49.45
2018-06-01T01:47:26.279Z,49.58
2018-06-01T01:49:54.761Z,47.78
2018-06-01T01:52:22.331Z,49.33
2018-06-01T01:54:49.899Z,50.38
2018-06-01T01:57:18.821Z,49.88
2018-06-01T01:59:49.416Z,49.60
2018-06-01T02:02:18.137Z,49.85
2018-06-01T02:04:46.609Z,51.55
2018-06-01T02:07:14.191Z,52.58
2018-06-01T02:09:42.427Z,49.88
2018-06-01T02:12:09.948Z,50.97
2018-06-01T02:14:37.499Z,49.75
2018-06-01T02:17:05.930Z,50.45
2018-06-01T02:19:34.651Z,49.13
2018-06-01T02:22:03.594Z,49.22
2018-06-01T02:24:31.188Z,48.00
2018-06-01T02:26:58.880Z,51.63
2018-06-01T02:29:28.155Z,50.60
2018-06-01T02:31:56.535Z,48.75
2018-06-01T02:34:25.116Z,51.20
2018-06-01T02:36:52.893Z,49.95
2018-06-01T02:39:20.463Z,50.28
2018-06-01T02:41:48.959Z,50.38
2018-06-01T02:44:17.693Z,51.17
2018-06-01T02:46:46.255Z,50.38
2018-06-01T02:49:13.824Z,49.47
2018-06-01T02:51:42.611Z,48.13
2018-06-01T02:54:10.391Z,47.47
2018-06-01T02:56:38.764Z,48.20
2018-06-01T02:59:07.043Z,50.65
2018-06-01T03:01:35.412Z,52.58
2018-06-01T03:04:03.740Z,54.75
2018-06-01T03:06:43.889Z,54.33
2018-06-01T03:09:11.442Z,55.15
2018-06-01T03:11:40.568Z,54.35
2018-06-01T03:14:09.378Z,54.53
2018-06-01T03:16:37.812Z,54.63
2018-06-01T03:19:05.374Z,51.13
2018-06-01T03:21:32.973Z,53.70
2018-06-01T03:24:01.196Z,52.22
2018-06-01T03:26:29.544Z,51.63
2018-06-01T03:28:58.123Z,54.95
2018-06-01T03:31:26.767Z,53.47
2018-06-01T03:33:55.140Z,51.88
2018-06-01T03:36:23.473Z,53.92
2018-06-01T03:38:51.858Z,53.95
2018-06-01T03:41:19.399Z,52.42
2018-06-01T03:43:47.967Z,51.78
2018-06-01T03:46:15.938Z,50.60
2018-06-01T03:48:44.441Z,50.90
2018-06-01T03:51:12.055Z,50.53
2018-06-01T03:53:40.223Z,49.85
2018-06-01T03:56:09.348Z,49.63
2018-06-01T03:58:38.089Z,49.00
2018-06-01T04:01:05.707Z,49.63
2018-06-01T04:03:34.099Z,48.20
2018-06-01T04:06:02.536Z,48.78
2018-06-01T04:08:30.171Z,47.72
2018-06-01T04:10:59.307Z,49.15
2018-06-01T04:13:28.046Z,48.20
2018-06-01T04:15:56.970Z,48.58
2018-06-01T04:18:25.711Z,48.33
2018-06-01T04:20:53.763Z,48.55
2018-06-01T04:23:22.951Z,48.67
2018-06-01T04:25:50.702Z,48.60
2018-06-01T04:28:19.466Z,47.67
2018-06-01T04:30:48.407Z,47.45
2018-06-01T04:33:16.869Z,47.22
2018-06-01T04:35:45.911Z,45.45
2018-06-01T04:38:13.535Z,45.85
2018-06-01T04:40:41.123Z,47.20
2018-06-01T04:43:10.636Z,46.65
2018-06-01T04:45:39.258Z,47.35
2018-06-01T04:48:07.572Z,47.80
2018-06-01T04:50:36.146Z,45.55
2018-06-01T04:53:04.399Z,46.22
2018-06-01T04:55:33.239Z,45.30
2018-06-01T04:58:02.055Z,44.95
2018-06-01T05:00:30.139Z,45.30
2018-06-01T05:02:58.418Z,44.40
2018-06-01T05:05:26.059Z,45.20
2018-06-01T05:07:54.424Z,43.85
2018-06-01T05:10:22.735Z,44.03
2018-06-01T05:12:50.827Z,43.08
2018-06-01T05:15:20.013Z,44.47
2018-06-01T05:17:47.567Z,43.75
2018-06-01T05:20:15.343Z,42.75
2018-06-01T05:22:42.922Z,44.03
2018-06-01T05:25:10.516Z,42.67
2018-06-01T05:27:38.076Z,42.22
2018-06-01T05:30:06.683Z,42.50
2018-06-01T05:32:34.263Z,44.53
2018-06-01T05:35:02.339Z,42.83
2018-06-01T05:37:30.892Z,41.75
2018-06-01T05:39:58.514Z,43.00
2018-06-01T05:42:26.074Z,40.95
2018-06-01T05:44:53.749Z,41.97
2018-06-01T05:47:21.901Z,41.10
2018-06-01T05:49:49.427Z,42.97
2018-06-01T05:52:17.827Z,43.50
2018-06-01T05:54:45.378Z,40.97
2018-06-01T05:57:13.601Z,40.50
2018-06-01T05:59:41.685Z,42.85
2018-06-01T06:02:09.231Z,40.97
2018-06-01T06:04:37.623Z,39.58
2018-06-01T06:07:06.105Z,38.10
2018-06-01T06:09:35.090Z,37.05
2018-06-01T06:12:04.479Z,36.90
2018-06-01T06:14:34.117Z,35.20
2018-06-01T06:17:03.491Z,32.15
2018-06-01T06:19:31.107Z,32.70
2018-06-01T06:21:59.059Z,32.38
2018-06-01T06:24:27.188Z,31.00
2018-06-01T06:26:56.978Z,30.75
2018-06-01T06:29:25.724Z,30.20
2018-06-01T06:31:53.340Z,29.33
2018-06-01T06:34:20.875Z,28.38
2018-06-01T06:36:48.449Z,29.08
2018-06-01T06:39:16.280Z,27.48
2018-06-01T06:41:45.103Z,27.08
2018-06-01T06:44:12.935Z,28.35
2018-06-01T06:46:40.508Z,28.02
2018-06-01T06:49:08.079Z,27.40
2018-06-01T06:51:36.424Z,26.42
2018-06-01T06:54:04.627Z,25.62
2018-06-01T06:56:33.289Z,26.00
2018-06-01T06:59:00.807Z,25.37
2018-06-01T07:01:28.334Z,25.35
2018-06-01T07:03:55.872Z,25.40
2018-06-01T07:06:23.396Z,24.98
2018-06-01T07:08:50.928Z,23.48
2018-06-01T07:11:18.450Z,23.80
2018-06-01T07:13:45.979Z,24.35
2018-06-01T07:16:13.503Z,24.42
2018-06-01T07:18:41.039Z,24.08
2018-06-01T07:21:08.592Z,23.60
2018-06-01T07:23:36.154Z,24.87
2018-06-01T07:26:04.554Z,25.48
2018-06-01T07:28:32.098Z,26.98
2018-06-01T07:30:59.626Z,27.33
2018-06-01T07:33:27.159Z,25.90
2018-06-01T07:35:54.715Z,27.05
2018-06-01T07:38:23.742Z,28.10
2018-06-01T07:40:51.848Z,30.58
2018-06-01T07:43:19.459Z,28.05
2018-06-01T07:45:47.899Z,28.70
2018-06-01T07:48:16.403Z,28.98
2018-06-01T07:50:44.877Z,26.73
2018-06-01T07:53:13.656Z,27.62
2018-06-01T07:55:42.795Z,27.55
2018-06-01T07:58:10.350Z,29.40
2018-06-01T08:00:39.072Z,30.02
2018-06-01T08:03:07.480Z,29.35
2018-06-01T08:05:36.795Z,30.37
2018-06-01T08:08:04.323Z,32.78
2018-06-01T08:10:33.707Z,36.00
2018-06-01T08:13:01.919Z,36.63
2018-06-01T08:15:30.966Z,39.67
2018-06-01T08:17:59.512Z,39.45
2018-06-01T08:20:28.066Z,39.55
2018-06-01T08:22:56.527Z,41.15
2018-06-01T08:25:24.046Z,40.78
2018-06-01T08:27:51.572Z,41.17
2018-06-01T08:30:19.099Z,41.13
2018-06-01T08:32:46.634Z,40.05
2018-06-01T08:35:14.159Z,39.25
2018-06-01T08:37:41.670Z,41.13
2018-06-01T08:40:09.187Z,42.20
2018-06-01T08:42:36.715Z,42.72
2018-06-01T08:45:04.257Z,43.42
2018-06-01T08:47:31.791Z,46.30
2018-06-01T08:49:59.315Z,44.42
2018-06-01T08:52:27.443Z,45.92
2018-06-01T08:54:55.767Z,45.88
2018-06-01T08:57:23.951Z,46.88
2018-06-01T08:59:52.861Z,47.72
2018-06-01T09:02:21.823Z,46.53
2018-06-01T09:04:50.775Z,44.10
2018-06-01T09:07:18.319Z,39.22
2018-06-01T09:09:45.927Z,40.03
2018-06-01T09:12:13.467Z,41.20
2018-06-01T09:14:41.968Z,40.75
2018-06-01T09:17:10.243Z,42.85
2018-06-01T09:19:38.587Z,47.97
2018-06-01T09:22:07.357Z,51.13
2018-06-01T09:24:35.895Z,48.13
2018-06-01T09:27:03.643Z,48.13
2018-06-01T09:29:31.494Z,48.28
2018-06-01T09:32:00.446Z,43.30
2018-06-01T09:34:29.370Z,48.35
2018-06-01T09:36:57.832Z,51.10
2018-06-01T09:39:25.791Z,54.33
2018-06-01T09:41:54.597Z,48.58
2018-06-01T09:44:22.507Z,52.55
2018-06-01T09:46:50.677Z,47.50
2018-06-01T09:49:18.947Z,49.10
2018-06-01T09:51:47.542Z,46.45
2018-06-01T09:54:16.555Z,42.62
2018-06-01T09:56:46.399Z,44.55
2018-06-01T09:59:15.631Z,42.72
2018-06-01T10:01:44.100Z,42.80
2018-06-01T10:04:12.881Z,41.92
2018-06-01T10:06:41.623Z,40.90
2018-06-01T10:09:09.816Z,41.47
2018-06-01T10:11:38.047Z,39.58
2018-06-01T10:14:05.879Z,39.22
2018-06-01T10:16:33.856Z,39.28
2018-06-01T10:19:02.339Z,38.58
2018-06-01T10:21:30.680Z,37.08
2018-06-01T10:23:58.200Z,37.70
2018-06-01T10:26:26.820Z,36.70
2018-06-01T10:28:55.653Z,36.67
2018-06-01T10:31:25.355Z,36.40
2018-06-01T10:33:54.088Z,36.80
2018-06-01T10:36:22.544Z,37.50
2018-06-01T10:38:50.843Z,37.45
2018-06-01T10:41:19.083Z,37.50
2018-06-01T10:43:48.301Z,35.92
2018-06-01T10:46:17.198Z,36.70
2018-06-01T10:48:45.334Z,34.92
2018-06-01T10:51:13.783Z,34.25
2018-06-01T10:53:42.306Z,32.72
2018-06-01T10:56:09.851Z,29.20
2018-06-01T10:58:37.627Z,23.87
2018-06-01T11:01:06.882Z,21.95
2018-06-01T11:03:35.679Z,23.42
2018-06-01T11:06:03.996Z,23.15
2018-06-01T11:08:32.755Z,24.65
2018-06-01T11:11:01.520Z,24.35
2018-06-01T11:13:29.048Z,25.15
2018-06-01T11:15:56.605Z,22.73
2018-06-01T11:18:24.126Z,18.85
2018-06-01T11:20:51.664Z,21.33
2018-06-01T11:23:20.676Z,25.25
2018-06-01T11:25:48.241Z,25.10
2018-06-01T11:28:16.738Z,25.02
2018-06-01T11:30:44.351Z,21.80
2018-06-01T11:33:11.907Z,22.40
2018-06-01T11:35:39.433Z,21.85
2018-06-01T11:38:06.954Z,19.40
2018-06-01T11:40:34.467Z,21.85
2018-06-01T11:43:01.983Z,23.87
2018-06-01T11:45:29.588Z,23.15
2018-06-01T11:47:57.112Z,24.85
2018-06-01T11:50:24.642Z,23.80
2018-06-01T11:52:52.967Z,22.13
2018-06-01T11:55:20.497Z,22.52
2018-06-01T11:57:48.407Z,21.33
2018-06-01T12:00:16.279Z,22.73
2018-06-01T12:02:45.783Z,23.42
2018-06-01T12:05:14.251Z,24.40
2018-06-01T12:07:42.339Z,24.73
2018-06-01T12:10:11.552Z,22.75
2018-06-01T12:12:39.843Z,23.50
2018-06-01T12:15:08.083Z,21.77
2018-06-01T12:17:35.736Z,21.50
2018-06-01T12:20:03.315Z,22.08
2018-06-01T12:22:30.870Z,20.90
2018-06-01T12:25:00.085Z,19.00
2018-06-01T12:27:28.100Z,18.87
2018-06-01T12:29:56.850Z,19.12
2018-06-01T12:32:25.953Z,19.83
2018-06-01T12:34:54.107Z,20.60
2018-06-01T12:37:22.866Z,20.20
2018-06-01T12:39:50.728Z,22.05
2018-06-01T12:42:18.259Z,23.85
2018-06-01T12:44:46.344Z,22.33
2018-06-01T12:47:13.900Z,22.87
2018-06-01T12:49:41.486Z,23.98
2018-06-01T12:52:09.839Z,22.92
2018-06-01T12:54:38.374Z,24.48
2018-06-01T12:57:05.935Z,22.52
2018-06-01T12:59:33.471Z,24.37
2018-06-01T13:02:02.159Z,23.52
2018-06-01T13:04:30.887Z,24.92
2018-06-01T13:06:58.948Z,23.05
2018-06-01T13:09:27.286Z,22.73
2018-06-01T13:11:54.903Z,22.20
2018-06-01T13:14:23.480Z,22.20
2018-06-01T13:16:51.814Z,22.02
2018-06-01T13:19:20.556Z,22.37
2018-06-01T13:21:48.096Z,22.67
2018-06-01T13:24:16.338Z,19.87
2018-06-01T13:26:43.892Z,21.05
2018-06-01T13:29:11.475Z,21.02
2018-06-01T13:31:49.851Z,21.83
2018-06-01T13:36:58.722Z,19.75
2018-06-01T13:39:33.071Z,20.98
2018-06-01T13:42:00.875Z,21.77
2018-06-01T13:44:29.867Z,22.90
2018-06-01T13:46:58.555Z,21.35
2018-06-01T13:49:26.723Z,21.75
2018-06-01T13:51:55.267Z,21.48
2018-06-01T13:54:24.146Z,21.85
2018-06-01T13:56:52.243Z,22.73
2018-06-01T13:59:20.190Z,23.62
2018-06-01T14:01:47.792Z,24.83
2018-06-01T14:04:17.080Z,22.92
2018-06-01T14:06:44.850Z,24.52
2018-06-01T14:09:12.827Z,24.95
2018-06-01T14:11:40.422Z,23.42
2018-06-01T14:14:08.668Z,31.17
2018-06-01T14:16:36.507Z,26.05
2018-06-01T14:19:04.299Z,26.60
2018-06-01T14:21:32.524Z,25.45
2018-06-01T14:24:00.046Z,25.90
2018-06-01T14:26:27.810Z,25.85
2018-06-01T14:28:56.101Z,25.95
2018-06-01T14:31:23.630Z,25.95
2018-06-01T14:33:51.739Z,27.23
2018-06-01T14:36:19.255Z,28.00
2018-06-01T14:38:46.795Z,25.88
2018-06-01T14:41:15.278Z,25.37
2018-06-01T14:43:43.663Z,25.20
2018-06-01T14:46:11.183Z,24.35
2018-06-01T14:48:39.795Z,26.02
2018-06-01T14:51:07.495Z,25.75
2018-06-01T14:53:35.343Z,26.15
2018-06-01T14:56:03.135Z,25.00
2018-06-01T14:58:31.568Z,24.80
2018-06-01T15:00:59.158Z,24.63
2018-06-01T15:03:26.751Z,23.83
2018-06-01T15:05:54.267Z,24.58
2018-06-01T15:08:22.782Z,21.83
2018-06-01T15:10:52.623Z,23.58
2018-06-01T15:13:21.116Z,23.33
2018-06-01T15:15:50.470Z,21.75
2018-06-01T15:18:18.031Z,22.10
2018-06-01T15:20:45.619Z,28.75
2018-06-01T15:23:13.563Z,29.17
2018-06-01T15:25:41.096Z,32.78
2018-06-01T15:28:08.673Z,34.53
2018-06-01T15:30:36.224Z,37.25
2018-06-01T15:33:04.939Z,39.05
2018-06-01T15:35:32.455Z,39.33
2018-06-01T15:38:01.326Z,39.72
2018-06-01T15:40:29.603Z,38.05
2018-06-01T15:42:58.086Z,40.05
2018-06-01T15:45:27.235Z,38.05
2018-06-01T15:47:54.755Z,37.35
2018-06-01T15:50:22.942Z,37.20
2018-06-01T15:52:51.363Z,36.75
2018-06-01T15:55:19.939Z,36.03
2018-06-01T15:57:47.715Z,35.58
2018-06-01T16:00:15.289Z,34.53
2018-06-01T16:02:43.144Z,34.75
2018-06-01T16:05:10.719Z,32.75
2018-06-01T16:07:39.613Z,33.35
2018-06-01T16:10:08.066Z,34.00
2018-06-01T16:12:35.624Z,33.53
2018-06-01T16:15:03.227Z,32.63
2018-06-01T16:17:31.617Z,32.20
2018-06-01T16:19:59.994Z,32.50
2018-06-01T16:22:27.555Z,32.65
2018-06-01T16:24:55.171Z,33.70
2018-06-01T16:27:22.750Z,33.28
2018-06-01T16:29:50.528Z,33.42
2018-06-01T16:32:18.368Z,35.30
2018-06-01T16:34:45.934Z,35.83
2018-06-01T16:37:13.547Z,36.78
2018-06-01T16:39:42.075Z,37.88
2018-06-01T16:42:09.993Z,39.08
2018-06-01T16:44:37.579Z,37.30
2018-06-01T16:47:05.223Z,39.08
2018-06-01T16:49:33.691Z,37.05
2018-06-01T16:52:03.087Z,39.67
2018-06-01T16:54:30.634Z,40.45
2018-06-01T16:57:00.473Z,42.22
2018-06-01T16:59:29.454Z,43.95
2018-06-01T17:01:58.583Z,43.87
2018-06-01T17:04:27.055Z,46.13
2018-06-01T17:06:54.816Z,46.88
2018-06-01T17:09:23.731Z,47.65
2018-06-01T17:11:52.259Z,50.58
2018-06-01T17:14:20.359Z,51.08
2018-06-01T17:16:48.379Z,51.78
2018-06-01T17:19:16.223Z,52.90
2018-06-01T17:21:44.443Z,54.63
2018-06-01T17:24:12.730Z,56.40
2018-06-01T17:26:40.301Z,54.95
2018-06-01T17:29:08.851Z,55.55
2018-06-01T17:31:37.415Z,55.55
2018-06-01T17:34:06.668Z,57.40
2018-06-01T17:36:34.474Z,59.25
2018-06-01T17:39:03.249Z,57.45
2018-06-01T17:41:31.993Z,57.62
2018-06-01T17:43:59.551Z,53.67
2018-06-01T17:46:27.188Z,38.15
2018-06-01T17:48:54.783Z,30.00
2018-06-01T17:51:22.330Z,27.85
2018-06-01T17:53:50.268Z,28.45
2018-06-01T17:56:18.735Z,29.45
2018-06-01T17:58:46.284Z,30.75
2018-06-01T18:01:15.353Z,33.58
2018-06-01T18:03:42.879Z,43.92
2018-06-01T18:06:10.440Z,57.38
2018-06-01T18:08:38.600Z,55.63
2018-06-01T18:11:06.171Z,59.20
2018-06-01T18:13:33.723Z,62.38
2018-06-01T18:16:01.247Z,79.45
2018-06-01T18:18:28.791Z,78.47
2018-06-01T18:20:57.135Z,70.07
2018-06-01T18:23:24.667Z,75.72
2018-06-01T18:25:53.113Z,79.37
2018-06-01T18:28:20.645Z,87.32
2018-06-01T18:30:48.164Z,82.35
2018-06-01T18:33:15.716Z,96.03
2018-06-01T18:35:43.603Z,96.05
2018-06-01T18:38:11.221Z,103.47
2018-06-01T18:40:39.591Z,103.53
2018-06-01T18:43:08.166Z,98.50
2018-06-01T18:45:35.691Z,93.93
2018-06-01T18:48:03.216Z,99.82
2018-06-01T18:50:30.748Z,110.15
2018-06-01T18:52:58.284Z,107.03
2018-06-01T18:55:25.834Z,112.80
2018-06-01T18:57:53.354Z,106.95
2018-06-01T19:00:20.879Z,106.28
2018-06-01T19:02:49.171Z,99.10
2018-06-01T19:05:16.695Z,109.22
2018-06-01T19:07:44.216Z,98.00
2018-06-01T19:10:11.768Z,105.65
2018-06-01T19:12:39.332Z,96.10
2018-06-01T19:15:06.918Z,98.82
2018-06-01T19:17:34.459Z,96.80
2018-06-01T19:20:02.007Z,93.78
2018-06-01T19:22:30.305Z,100.68
2018-06-01T19:24:57.839Z,100.87
2018-06-01T19:27:26.145Z,95.28
2018-06-01T19:29:53.706Z,90.43
2018-06-01T19:32:21.228Z,92.03
2018-06-01T19:34:49.179Z,92.30
2018-06-01T19:37:17.451Z,93.12
2018-06-01T19:39:45.252Z,94.82
2018-06-01T19:42:12.800Z,90.62
2018-06-01T19:44:41.151Z,83.87
2018-06-01T19:47:08.671Z,79.93
2018-06-01T19:49:36.187Z,65.50
2018-06-01T19:52:03.706Z,42.03
2018-06-01T19:54:31.228Z,33.45
2018-06-01T19:56:58.750Z,36.30
2018-06-01T19:59:26.318Z,33.42
2018-06-01T20:01:53.804Z,35.60
2018-06-01T20:04:21.362Z,29.42
2018-06-01T20:06:48.994Z,27.62
2018-06-01T20:09:16.506Z,28.83
2018-06-01T20:11:44.019Z,30.80
2018-06-01T20:14:12.058Z,31.45
2018-06-01T20:16:39.628Z,32.03
2018-06-01T20:19:07.151Z,25.52
2018-06-01T20:21:34.683Z,24.85
2018-06-01T20:24:02.269Z,26.52
2018-06-01T20:26:29.825Z,25.35
2018-06-01T20:28:57.351Z,21.05
2018-06-01T20:31:25.154Z,22.48
2018-06-01T20:33:52.737Z,22.02
2018-06-01T20:36:20.284Z,20.17
2018-06-01T20:38:48.567Z,19.10
2018-06-01T20:41:16.811Z,20.30
2018-06-01T20:43:44.746Z,18.23
2018-06-01T20:46:13.069Z,18.90
2018-06-01T20:48:41.559Z,17.42
2018-06-01T20:51:09.087Z,15.55
2018-06-01T20:53:37.230Z,17.30
2018-06-01T20:56:04.762Z,16.98
2018-06-01T20:58:33.113Z,17.05
2018-06-01T21:01:00.715Z,16.75
2018-06-01T21:03:28.822Z,17.00
2018-06-01T21:05:56.640Z,19.90
2018-06-01T21:08:24.932Z,18.33
2018-06-01T21:10:53.215Z,22.17
2018-06-01T21:13:20.743Z,22.08
2018-06-01T21:15:49.387Z,25.15
2018-06-01T21:18:16.964Z,27.77
2018-06-01T21:20:45.388Z,30.17
2018-06-01T21:23:14.732Z,32.60
2018-06-01T21:25:42.269Z,35.05
2018-06-01T21:28:09.815Z,40.33
2018-06-01T21:30:38.891Z,40.12
2018-06-01T21:33:06.435Z,45.90
2018-06-01T21:35:34.657Z,46.53
2018-06-01T21:38:02.207Z,46.97
2018-06-01T21:40:29.732Z,52.17
2018-06-01T21:42:57.399Z,51.60
2018-06-01T21:45:24.923Z,55.47
2018-06-01T21:47:52.467Z,56.25
2018-06-01T21:50:19.992Z,57.22
2018-06-01T21:52:47.759Z,57.60
2018-06-01T21:55:15.341Z,62.78
2018-06-01T21:57:42.929Z,61.22
2018-06-01T22:00:11.320Z,64.07
2018-06-01T22:02:39.659Z,60.15
2018-06-01T22:05:08.119Z,65.75
2018-06-01T22:07:35.647Z,62.97
2018-06-01T22:10:03.176Z,60.65
2018-06-01T22:12:30.751Z,62.78
2018-06-01T22:14:58.379Z,60.55
2018-06-01T22:17:26.825Z,60.53
2018-06-01T22:19:54.839Z,58.70
2018-06-01T22:22:22.360Z,62.38
2018-06-01T22:24:49.881Z,61.25
2018-06-01T22:27:17.398Z,60.70
2018-06-01T22:29:44.950Z,64.75
2018-06-01T22:32:12.468Z,61.37
2018-06-01T22:34:40.480Z,65.12
2018-06-01T22:37:08.643Z,62.45
2018-06-01T22:39:36.199Z,68.75
2018-06-01T22:42:03.715Z,61.55
2018-06-01T22:44:31.976Z,62.85
2018-06-01T22:47:00.494Z,62.97
2018-06-01T22:49:28.131Z,59.33
2018-06-01T22:51:55.687Z,59.13
2018-06-01T22:54:23.334Z,63.85
2018-06-01T22:56:50.875Z,59.60
2018-06-01T22:59:19.574Z,59.75
2018-06-01T23:01:48.233Z,58.05
2018-06-01T23:04:15.755Z,57.72
2018-06-01T23:06:43.824Z,56.15
2018-06-01T23:09:12.275Z,60.45
2018-06-01T23:11:39.796Z,58.83
2018-06-01T23:14:07.360Z,55.63
2018-06-01T23:16:34.935Z,57.38
2018-06-01T23:19:03.404Z,58.10
2018-06-01T23:21:31.766Z,56.58
2018-06-01T23:23:59.326Z,61.97
2018-06-01T23:26:26.867Z,56.95
2018-06-01T23:28:55.171Z,59.80
2018-06-01T23:31:23.640Z,57.03
2018-06-01T23:33:51.195Z,53.05
2018-06-01T23:36:18.960Z,52.33
2018-06-01T23:38:46.846Z,54.03
2018-06-01T23:41:14.895Z,52.67
2018-06-01T23:43:42.436Z,53.10
2018-06-01T23:46:10.732Z,53.30
2018-06-01T23:48:38.276Z,52.62
2018-06-01T23:51:05.801Z,52.08
2018-06-01T23:53:33.331Z,50.53
2018-06-01T23:56:00.870Z,51.75
2018-06-01T23:58:28.411Z,53.55
